createdAt,value
2022-12-27T00:00:34.745Z,139.80
2022-12-27T00:03:03.363Z,129.53
2022-12-27T00:05:31.998Z,145.13
2022-12-27T00:08:00.536Z,133.00
2022-12-27T00:10:29.216Z,135.60
2022-12-27T00:12:59.240Z,144.50
2022-12-27T00:15:32.360Z,144.47
2022-12-27T00:18:00.796Z,143.23
2022-12-27T00:20:32.095Z,150.17
2022-12-27T00:23:01.640Z,153.60
2022-12-27T00:25:30.038Z,150.17
2022-12-27T00:27:59.822Z,151.90
2022-12-27T00:30:28.144Z,145.97
2022-12-27T00:32:56.609Z,152.33
2022-12-27T00:35:24.906Z,148.90
2022-12-27T00:37:53.335Z,161.70
2022-12-27T00:40:21.859Z,148.90
2022-12-27T00:42:50.317Z,150.83
2022-12-27T00:45:20.253Z,156.70
2022-12-27T00:47:48.661Z,150.30
2022-12-27T00:50:17.105Z,160.07
2022-12-27T00:52:45.595Z,154.57
2022-12-27T00:55:16.382Z,155.73
2022-12-27T00:57:45.111Z,159.00
2022-12-27T01:00:14.727Z,160.13
2022-12-27T01:02:44.579Z,168.83
2022-12-27T01:05:13.444Z,157.10
2022-12-27T01:07:42.061Z,157.77
2022-12-27T01:10:11.128Z,160.30
2022-12-27T01:12:42.246Z,154.20
2022-12-27T01:15:14.759Z,152.40
2022-12-27T01:17:45.475Z,160.73
2022-12-27T01:20:15.856Z,154.37
2022-12-27T01:22:44.318Z,151.40
2022-12-27T01:25:12.869Z,163.20
2022-12-27T01:27:41.460Z,164.20
2022-12-27T01:30:11.089Z,156.70
2022-12-27T01:32:39.546Z,147.93
2022-12-27T01:35:10.587Z,151.17
2022-12-27T01:37:38.904Z,164.00
2022-12-27T01:40:10.812Z,151.93
2022-12-27T01:42:53.262Z,160.60
2022-12-27T01:45:23.134Z,170.50
2022-12-27T01:47:59.823Z,164.53
2022-12-27T01:50:37.181Z,154.80
2022-12-27T01:53:10.203Z,160.17
2022-12-27T01:55:43.894Z,156.47
2022-12-27T01:58:19.222Z,162.60
2022-12-27T02:00:49.646Z,163.83
2022-12-27T02:03:22.969Z,156.70
2022-12-27T02:05:53.062Z,149.93
2022-12-27T02:08:31.501Z,164.43
2022-12-27T02:11:00.567Z,163.40
2022-12-27T02:13:35.651Z,155.27
2022-12-27T02:16:10.973Z,158.77
2022-12-27T02:18:39.558Z,166.77
2022-12-27T02:21:40.888Z,182.30
2022-12-27T02:24:42.541Z,179.50
2022-12-27T02:27:25.409Z,168.27
2022-12-27T02:30:00.572Z,158.70
2022-12-27T02:32:32.985Z,161.17
2022-12-27T02:35:10.952Z,174.00
2022-12-27T02:37:43.909Z,160.33
2022-12-27T02:40:31.618Z,163.50
2022-12-27T02:43:18.185Z,159.40
2022-12-27T02:46:21.427Z,140.40
2022-12-27T02:49:26.733Z,149.03
2022-12-27T02:52:28.428Z,169.30
2022-12-27T02:55:16.637Z,152.77
2022-12-27T02:57:52.493Z,146.70
2022-12-27T03:00:40.267Z,247.10
2022-12-27T03:03:44.269Z,201.13
2022-12-27T03:06:42.835Z,146.83
2022-12-27T03:09:48.236Z,156.70
2022-12-27T03:12:42.440Z,149.37
2022-12-27T03:15:43.689Z,133.80
2022-12-27T03:18:18.379Z,134.47
2022-12-27T03:21:07.487Z,134.73
2022-12-27T03:23:54.125Z,136.57
2022-12-27T03:26:27.472Z,135.17
2022-12-27T03:29:14.535Z,124.23
2022-12-27T03:32:04.914Z,116.93
2022-12-27T03:34:44.944Z,122.83
2022-12-27T03:37:34.660Z,120.60
2022-12-27T03:40:10.836Z,116.17
2022-12-27T03:43:02.041Z,111.87
2022-12-27T03:45:54.017Z,105.57
2022-12-27T03:48:29.326Z,104.83
2022-12-27T03:51:07.582Z,108.47
2022-12-27T03:53:40.673Z,104.90
2022-12-27T03:56:10.314Z,101.43
2022-12-27T03:58:38.809Z,95.73
2022-12-27T04:01:07.600Z,89.63
2022-12-27T04:03:36.162Z,95.90
2022-12-27T04:06:04.792Z,97.30
2022-12-27T04:08:50.588Z,95.30
2022-12-27T04:11:40.249Z,86.07
2022-12-27T04:14:26.313Z,86.13
2022-12-27T04:17:12.333Z,96.00
2022-12-27T04:19:58.112Z,92.23
2022-12-27T04:22:44.162Z,92.17
2022-12-27T04:25:29.633Z,87.23
2022-12-27T04:28:18.120Z,83.80
2022-12-27T04:31:04.185Z,78.60
2022-12-27T04:33:50.407Z,84.33
2022-12-27T04:36:18.862Z,87.03
2022-12-27T04:38:50.263Z,88.60
2022-12-27T04:41:36.237Z,89.17
2022-12-27T04:44:23.572Z,91.23
2022-12-27T04:47:09.401Z,94.97
2022-12-27T04:49:55.252Z,98.37
2022-12-27T04:52:43.083Z,100.57
2022-12-27T04:55:19.008Z,97.10
2022-12-27T04:57:47.546Z,89.40
2022-12-27T05:00:36.711Z,81.30
2022-12-27T05:03:08.795Z,87.60
2022-12-27T05:05:39.142Z,90.43
2022-12-27T05:08:26.033Z,90.27
2022-12-27T05:11:11.965Z,81.70
2022-12-27T05:13:57.817Z,92.77
2022-12-27T05:16:30.784Z,92.27
2022-12-27T05:18:59.535Z,96.07
2022-12-27T05:21:28.440Z,102.93
2022-12-27T05:24:14.207Z,104.97
2022-12-27T05:26:42.728Z,81.30
2022-12-27T05:29:12.715Z,97.03
2022-12-27T05:31:42.628Z,91.77
2022-12-27T05:34:11.071Z,86.50
2022-12-27T05:36:41.567Z,94.33
2022-12-27T05:39:11.116Z,87.87
2022-12-27T05:41:39.518Z,93.30
2022-12-27T05:44:08.020Z,75.63
2022-12-27T05:46:37.492Z,92.03
2022-12-27T05:49:07.489Z,97.33
2022-12-27T05:51:35.884Z,88.27
2022-12-27T05:54:04.349Z,96.97
2022-12-27T05:56:37.326Z,106.40
2022-12-27T05:59:08.163Z,92.03
2022-12-27T06:01:36.685Z,96.63
2022-12-27T06:04:06.777Z,99.57
2022-12-27T06:06:35.476Z,100.43
2022-12-27T06:09:03.888Z,101.70
2022-12-27T06:11:32.343Z,94.63
2022-12-27T06:14:00.821Z,86.47
2022-12-27T06:16:29.436Z,85.17
2022-12-27T06:18:57.916Z,78.23
2022-12-27T06:21:27.989Z,77.73
2022-12-27T06:23:58.852Z,73.97
2022-12-27T06:26:30.026Z,67.67
2022-12-27T06:28:59.621Z,68.00
2022-12-27T06:31:31.174Z,73.97
2022-12-27T06:33:59.634Z,53.77
2022-12-27T06:36:30.371Z,51.70
2022-12-27T06:38:58.934Z,53.73
2022-12-27T06:41:29.360Z,60.13
2022-12-27T06:44:01.657Z,47.80
2022-12-27T06:46:30.131Z,47.10
2022-12-27T06:48:59.802Z,40.93
2022-12-27T06:51:29.697Z,42.37
2022-12-27T06:53:58.153Z,37.10
2022-12-27T06:56:26.568Z,43.30
2022-12-27T06:58:55.100Z,41.60
2022-12-27T07:01:25.469Z,42.93
2022-12-27T07:03:55.737Z,54.57
2022-12-27T07:06:26.185Z,53.17
2022-12-27T07:08:57.883Z,50.97
2022-12-27T07:11:26.918Z,55.03
2022-12-27T07:13:57.016Z,64.33
2022-12-27T07:16:27.621Z,70.13
2022-12-27T07:18:57.470Z,60.53
2022-12-27T07:21:27.901Z,60.37
2022-12-27T07:24:00.055Z,62.43
2022-12-27T07:26:30.698Z,65.37
2022-12-27T07:29:01.203Z,64.27
2022-12-27T07:31:32.008Z,61.00
2022-12-27T07:34:02.708Z,58.40
2022-12-27T07:36:35.449Z,51.97
2022-12-27T07:39:06.406Z,42.63
2022-12-27T07:41:35.167Z,32.10
2022-12-27T07:44:04.112Z,32.73
2022-12-27T07:46:32.972Z,37.47
2022-12-27T07:49:01.604Z,29.97
2022-12-27T07:51:30.677Z,35.47
2022-12-27T07:53:59.165Z,39.63
2022-12-27T07:56:30.342Z,29.20
2022-12-27T07:59:00.689Z,32.83
2022-12-27T08:01:32.856Z,33.63
2022-12-27T08:04:01.415Z,28.70
2022-12-27T08:06:35.022Z,31.30
2022-12-27T08:09:07.583Z,33.60
2022-12-27T08:11:37.479Z,37.93
2022-12-27T08:14:05.892Z,47.40
2022-12-27T08:16:34.374Z,49.13
2022-12-27T08:19:08.144Z,50.03
2022-12-27T08:21:37.105Z,45.40
2022-12-27T08:24:08.358Z,43.83
2022-12-27T08:26:38.121Z,47.20
2022-12-27T08:29:09.629Z,46.00
2022-12-27T08:31:38.161Z,48.13
2022-12-27T08:34:06.667Z,43.90
2022-12-27T08:39:24.440Z,41.87
2022-12-27T08:41:55.128Z,38.33
2022-12-27T08:44:23.678Z,41.20
2022-12-27T08:46:52.221Z,36.30
2022-12-27T08:49:20.722Z,34.00
2022-12-27T08:51:49.075Z,38.67
2022-12-27T08:54:17.491Z,37.93
2022-12-27T08:56:45.872Z,40.30
2022-12-27T08:59:15.690Z,44.70
2022-12-27T09:01:45.191Z,41.17
2022-12-27T09:04:13.722Z,44.50
2022-12-27T09:06:42.202Z,42.40
2022-12-27T09:09:10.673Z,43.60
2022-12-27T09:11:39.056Z,44.83
2022-12-27T09:14:07.610Z,43.33
2022-12-27T09:16:38.217Z,44.90
2022-12-27T09:19:07.101Z,39.37
2022-12-27T09:21:36.451Z,41.20
2022-12-27T09:24:05.264Z,44.20
2022-12-27T09:26:33.771Z,40.50
2022-12-27T09:29:02.331Z,44.67
2022-12-27T09:31:31.147Z,44.03
2022-12-27T09:34:01.062Z,37.03
2022-12-27T09:36:31.078Z,39.70
2022-12-27T09:38:59.923Z,39.53
2022-12-27T09:44:47.142Z,44.13
2022-12-27T09:47:20.473Z,51.83
2022-12-27T09:49:54.107Z,44.80
2022-12-27T09:52:27.233Z,46.00
2022-12-27T09:55:05.152Z,50.70
2022-12-27T09:57:38.538Z,46.63
2022-12-27T10:00:15.765Z,49.23
2022-12-27T10:02:45.462Z,49.60
2022-12-27T10:05:22.490Z,45.17
2022-12-27T10:08:03.517Z,43.93
2022-12-27T10:10:42.792Z,50.33
2022-12-27T10:13:24.673Z,45.83
2022-12-27T10:16:10.638Z,48.47
2022-12-27T10:18:49.527Z,51.33
2022-12-27T10:21:23.198Z,49.47
2022-12-27T10:23:57.143Z,57.20
2022-12-27T10:26:25.763Z,53.03
2022-12-27T10:28:59.946Z,52.93
2022-12-27T10:31:29.350Z,49.27
2022-12-27T10:33:58.746Z,53.80
2022-12-27T10:36:33.432Z,56.93
2022-12-27T10:39:04.561Z,51.93
2022-12-27T10:41:50.185Z,51.00
2022-12-27T10:44:18.752Z,48.17
2022-12-27T10:46:53.457Z,53.23
2022-12-27T10:49:25.683Z,49.00
2022-12-27T10:51:58.127Z,45.50
2022-12-27T10:54:28.501Z,46.30
2022-12-27T10:56:58.241Z,48.17
2022-12-27T10:59:28.365Z,56.27
2022-12-27T11:02:17.800Z,48.70
2022-12-27T11:05:19.382Z,49.40
2022-12-27T11:07:49.266Z,47.73
2022-12-27T11:10:19.745Z,46.53
2022-12-27T11:12:58.040Z,53.73
2022-12-27T11:15:27.630Z,48.73
2022-12-27T11:17:58.741Z,51.83
2022-12-27T11:20:30.785Z,52.23
2022-12-27T11:23:04.866Z,51.87
2022-12-27T11:25:34.517Z,54.17
2022-12-27T11:28:06.692Z,53.97
2022-12-27T11:30:41.206Z,46.33
2022-12-27T11:33:24.747Z,61.57
2022-12-27T11:35:56.983Z,53.43
2022-12-27T11:38:29.209Z,48.43
2022-12-27T11:41:03.408Z,63.07
2022-12-27T11:43:40.422Z,50.57
2022-12-27T11:46:15.801Z,50.40
2022-12-27T11:48:46.736Z,53.27
2022-12-27T11:51:31.219Z,47.97
2022-12-27T11:54:18.071Z,55.17
2022-12-27T11:56:51.643Z,55.47
2022-12-27T11:59:40.871Z,56.37
2022-12-27T12:02:33.691Z,56.37
2022-12-27T12:05:31.462Z,54.30
2022-12-27T12:08:24.893Z,54.20
2022-12-27T12:11:05.157Z,53.30
2022-12-27T12:14:02.415Z,57.23
2022-12-27T12:16:51.876Z,54.37
2022-12-27T12:19:55.504Z,59.73
2022-12-27T12:22:40.489Z,60.30
2022-12-27T12:25:38.321Z,60.93
2022-12-27T12:29:00.794Z,65.30
2022-12-27T12:31:47.914Z,70.37
2022-12-27T12:34:32.115Z,66.97
2022-12-27T12:37:13.260Z,69.70
2022-12-27T12:40:04.955Z,61.80
2022-12-27T12:42:41.890Z,59.30
2022-12-27T12:45:44.689Z,62.77
2022-12-27T12:48:42.740Z,67.33
2022-12-27T12:51:34.211Z,60.00
2022-12-27T12:54:22.993Z,65.07
2022-12-27T12:57:07.624Z,60.30
2022-12-27T13:00:02.066Z,61.90
2022-12-27T13:03:01.511Z,64.03
2022-12-27T13:05:39.921Z,55.87
2022-12-27T13:08:16.778Z,62.40
2022-12-27T13:11:14.294Z,62.43
2022-12-27T13:13:54.703Z,60.83
2022-12-27T13:16:33.681Z,55.40
2022-12-27T13:19:14.419Z,62.50
2022-12-27T13:22:00.619Z,69.13
2022-12-27T13:24:43.893Z,69.63
2022-12-27T13:27:21.381Z,71.87
2022-12-27T13:30:06.296Z,74.63
2022-12-27T13:32:53.890Z,67.47
2022-12-27T13:35:43.612Z,69.77
2022-12-27T13:38:33.196Z,76.60
2022-12-27T13:41:16.372Z,74.93
2022-12-27T13:43:54.862Z,72.87
2022-12-27T13:46:54.075Z,69.40
2022-12-27T13:49:54.151Z,79.10
2022-12-27T13:52:43.495Z,73.57
2022-12-27T13:55:41.090Z,67.87
2022-12-27T13:58:45.346Z,63.80
2022-12-27T14:01:33.284Z,67.83
2022-12-27T14:04:25.175Z,65.10
2022-12-27T14:07:37.183Z,74.80
2022-12-27T14:10:16.345Z,77.93
2022-12-27T14:12:59.576Z,100.50
2022-12-27T14:15:44.384Z,83.30
2022-12-27T14:18:31.321Z,78.83
2022-12-27T14:21:16.354Z,74.83
2022-12-27T14:23:58.642Z,72.13
2022-12-27T14:26:50.515Z,92.37
2022-12-27T14:30:03.753Z,74.23
2022-12-27T14:33:05.946Z,88.13
2022-12-27T14:36:09.849Z,84.07
2022-12-27T14:39:15.693Z,91.80
2022-12-27T14:42:20.097Z,84.70
2022-12-27T14:45:30.205Z,96.07
2022-12-27T14:48:36.117Z,93.53
2022-12-27T14:51:59.277Z,87.67
2022-12-27T14:55:00.561Z,84.03
2022-12-27T14:57:43.259Z,90.37
2022-12-27T15:00:17.604Z,84.07
2022-12-27T15:03:09.954Z,106.13
2022-12-27T15:05:49.520Z,86.23
2022-12-27T15:08:54.395Z,95.80
2022-12-27T15:11:39.234Z,91.73
2022-12-27T15:14:26.723Z,97.47
2022-12-27T15:17:06.164Z,97.07
2022-12-27T15:19:55.840Z,101.33
2022-12-27T15:22:31.124Z,94.27
2022-12-27T15:25:14.212Z,97.53
2022-12-27T15:27:50.218Z,95.73
2022-12-27T15:30:25.270Z,100.43
2022-12-27T15:33:05.571Z,107.33
2022-12-27T15:35:50.812Z,112.30
2022-12-27T15:38:38.947Z,118.60
2022-12-27T15:41:30.540Z,123.13
2022-12-27T15:44:27.252Z,110.73
2022-12-27T15:47:15.576Z,97.73
2022-12-27T15:50:30.435Z,113.73
2022-12-27T15:53:13.808Z,123.67
2022-12-27T15:56:11.757Z,107.03
2022-12-27T15:58:40.645Z,114.70
2022-12-27T16:01:29.980Z,124.20
2022-12-27T16:04:20.486Z,110.23
2022-12-27T16:07:02.238Z,114.37
2022-12-27T16:09:39.513Z,122.27
2022-12-27T16:12:13.243Z,122.67
2022-12-27T16:14:44.399Z,126.40
2022-12-27T16:17:32.968Z,129.10
2022-12-27T16:20:20.012Z,130.23
2022-12-27T16:22:54.354Z,119.97
2022-12-27T16:25:31.059Z,116.67
2022-12-27T16:28:03.865Z,122.43
2022-12-27T16:30:43.873Z,122.57
2022-12-27T16:33:37.455Z,123.60
2022-12-27T16:36:15.413Z,122.60
2022-12-27T16:38:51.910Z,127.63
2022-12-27T16:41:35.675Z,125.97
2022-12-27T16:44:16.969Z,119.37
2022-12-27T16:46:59.307Z,123.43
2022-12-27T16:49:57.796Z,119.33
2022-12-27T16:52:51.762Z,119.97
2022-12-27T16:55:58.412Z,138.17
2022-12-27T16:58:36.202Z,140.57
2022-12-27T17:01:06.776Z,123.57
2022-12-27T17:03:49.281Z,148.47
2022-12-27T17:07:03.010Z,124.53
2022-12-27T17:09:45.231Z,124.63
2022-12-27T17:12:23.899Z,122.53
2022-12-27T17:15:00.337Z,146.70
2022-12-27T17:17:30.005Z,138.90
2022-12-27T17:20:03.068Z,143.03
2022-12-27T17:22:35.301Z,150.20
2022-12-27T17:25:04.905Z,159.37
2022-12-27T17:27:58.895Z,136.30
2022-12-27T17:30:35.717Z,146.63
2022-12-27T17:33:21.220Z,138.03
2022-12-27T17:36:05.714Z,127.67
2022-12-27T17:38:45.402Z,140.87
2022-12-27T17:41:41.929Z,140.00
2022-12-27T17:44:41.294Z,134.57
2022-12-27T17:47:20.976Z,136.53
2022-12-27T17:49:49.877Z,137.47
2022-12-27T17:52:37.913Z,148.43
2022-12-27T17:55:38.773Z,135.87
2022-12-27T17:58:09.710Z,143.00
2022-12-27T18:00:45.552Z,139.23
2022-12-27T18:03:15.695Z,147.50
2022-12-27T18:05:47.394Z,133.63
2022-12-27T18:08:23.902Z,130.60
2022-12-27T18:10:52.817Z,142.30
2022-12-27T18:13:24.326Z,137.90
2022-12-27T18:15:55.125Z,146.50
2022-12-27T18:18:27.898Z,139.70
2022-12-27T18:20:59.747Z,145.80
2022-12-27T18:23:29.032Z,140.53
2022-12-27T18:26:03.302Z,140.97
2022-12-27T18:28:35.390Z,151.00
2022-12-27T18:31:13.205Z,160.20
2022-12-27T18:33:45.665Z,151.07
2022-12-27T18:36:22.532Z,143.50
2022-12-27T18:38:56.415Z,156.90
2022-12-27T18:41:25.840Z,143.70
2022-12-27T18:43:59.777Z,148.23
2022-12-27T18:46:32.383Z,149.03
2022-12-27T18:49:02.178Z,146.00
2022-12-27T18:51:32.901Z,161.03
2022-12-27T18:54:02.319Z,163.40
2022-12-27T18:56:33.908Z,140.60
2022-12-27T18:59:05.819Z,161.23
2022-12-27T19:01:44.171Z,143.50
2022-12-27T19:04:23.999Z,147.90
2022-12-27T19:06:56.950Z,159.27
2022-12-27T19:09:30.047Z,152.93
2022-12-27T19:12:01.415Z,155.03
2022-12-27T19:14:37.374Z,160.57
2022-12-27T19:17:11.297Z,165.30
2022-12-27T19:19:40.049Z,155.93
2022-12-27T19:22:35.406Z,161.30
2022-12-27T19:25:06.848Z,177.53
2022-12-27T19:27:37.522Z,169.30
2022-12-27T19:30:07.503Z,171.10
2022-12-27T19:32:39.812Z,173.60
2022-12-27T19:35:08.772Z,169.50
2022-12-27T19:37:39.699Z,166.33
2022-12-27T19:40:14.607Z,191.10
2022-12-27T19:42:43.777Z,172.13
2022-12-27T19:45:15.452Z,187.90
2022-12-27T19:47:45.323Z,170.57
2022-12-27T19:50:13.880Z,177.63
2022-12-27T19:52:42.470Z,165.87
2022-12-27T19:55:21.047Z,145.30
2022-12-27T19:57:49.508Z,178.07
2022-12-27T20:00:23.173Z,167.57
2022-12-27T20:02:53.089Z,161.17
2022-12-27T20:06:12.600Z,166.97
2022-12-27T20:08:24.513Z,171.13
2022-12-27T20:10:53.355Z,155.00
2022-12-27T20:13:22.225Z,169.40
2022-12-27T20:15:52.073Z,189.57
2022-12-27T20:18:22.214Z,184.50
2022-12-27T20:20:51.612Z,167.87
2022-12-27T20:23:20.708Z,180.43
2022-12-27T20:25:50.941Z,198.40
2022-12-27T20:28:20.098Z,178.70
2022-12-27T20:30:48.976Z,161.80
2022-12-27T20:33:17.511Z,178.30
2022-12-27T20:35:57.451Z,171.67
2022-12-27T20:38:26.837Z,192.53
2022-12-27T20:40:55.350Z,168.13
2022-12-27T20:43:23.796Z,183.70
2022-12-27T20:45:52.328Z,151.07
2022-12-27T20:48:20.860Z,180.40
2022-12-27T20:50:51.171Z,187.10
2022-12-27T20:53:19.585Z,185.53
2022-12-27T20:55:59.116Z,178.13
2022-12-27T20:58:27.588Z,172.13
2022-12-27T21:00:56.314Z,185.53
2022-12-27T21:03:24.798Z,164.57
2022-12-27T21:05:54.791Z,173.23
2022-12-27T21:08:23.260Z,190.10
2022-12-27T21:10:51.866Z,167.50
2022-12-27T21:13:20.869Z,170.27
2022-12-27T21:15:49.431Z,180.33
2022-12-27T21:18:18.134Z,169.20
2022-12-27T21:20:46.641Z,166.63
2022-12-27T21:23:16.427Z,168.03
2022-12-27T21:25:44.916Z,168.23
2022-12-27T21:28:13.635Z,185.57
2022-12-27T21:30:42.093Z,163.87
2022-12-27T21:33:10.491Z,162.47
2022-12-27T21:35:39.205Z,163.00
2022-12-27T21:38:07.832Z,161.27
2022-12-27T21:40:38.442Z,181.60
2022-12-27T21:43:06.917Z,187.07
2022-12-27T21:45:37.089Z,164.43
2022-12-27T21:48:05.598Z,177.87
2022-12-27T21:50:37.396Z,166.07
2022-12-27T21:53:06.175Z,174.57
2022-12-27T21:56:36.767Z,182.70
2022-12-27T21:59:11.041Z,174.80
2022-12-27T22:01:49.575Z,175.43
2022-12-27T22:04:19.424Z,173.87
2022-12-27T22:06:48.325Z,172.07
2022-12-27T22:09:16.887Z,190.00
2022-12-27T22:11:45.414Z,193.70
2022-12-27T22:14:15.310Z,200.00
2022-12-27T22:16:43.857Z,216.33
2022-12-27T22:19:14.519Z,210.47
2022-12-27T22:21:43.285Z,209.53
2022-12-27T22:24:19.525Z,217.43
2022-12-27T22:26:50.173Z,181.77
2022-12-27T22:29:21.721Z,199.03
2022-12-27T22:31:50.169Z,176.30
2022-12-27T22:34:18.610Z,178.30
2022-12-27T22:36:47.060Z,178.67
2022-12-27T22:39:15.614Z,193.30
2022-12-27T22:41:44.094Z,180.97
2022-12-27T22:44:14.343Z,185.40
2022-12-27T22:47:15.620Z,178.57
2022-12-27T22:49:32.939Z,179.30
2022-12-27T22:52:01.537Z,179.53
2022-12-27T22:55:05.484Z,175.70
2022-12-27T22:57:18.582Z,179.33
2022-12-27T22:59:47.164Z,175.23
2022-12-27T23:02:17.209Z,170.93
2022-12-27T23:04:45.912Z,181.07
2022-12-27T23:07:14.505Z,175.63
2022-12-27T23:09:43.799Z,171.27
2022-12-27T23:12:12.725Z,191.93
2022-12-27T23:14:43.460Z,181.27
2022-12-27T23:17:11.857Z,190.50
2022-12-27T23:19:41.693Z,174.50
2022-12-27T23:22:10.233Z,201.73
2022-12-27T23:24:38.815Z,189.60
2022-12-27T23:27:07.300Z,190.00
2022-12-27T23:29:35.904Z,199.03
2022-12-27T23:32:04.538Z,198.70
2022-12-27T23:34:32.931Z,219.17
2022-12-27T23:37:02.990Z,213.10
2022-12-27T23:39:31.396Z,230.77
2022-12-27T23:41:59.873Z,228.83
2022-12-27T23:44:33.916Z,232.17
2022-12-27T23:47:06.433Z,213.20
2022-12-27T23:49:35.552Z,225.77
2022-12-27T23:52:06.798Z,232.67
2022-12-27T23:54:35.359Z,246.53
2022-12-27T23:57:20.307Z,226.77
2022-12-27T23:59:51.778Z,250.57
